sensor_id;sensor_type;location;lat;lon;timestamp;pressure;altitude;pressure_sealevel;temperature
63297;BMP280;49419;51.716;-4.948;2023-05-13T00:01:29;102465.47;;;14.43
63297;BMP280;49419;51.716;-4.948;2023-05-13T00:03:59;102470.00;;;14.47
63297;BMP280;49419;51.716;-4.948;2023-05-13T00:06:42;102464.91;;;14.48
63297;BMP280;49419;51.716;-4.948;2023-05-13T00:09:08;102463.13;;;14.47
63297;BMP280;49419;51.716;-4.948;2023-05-13T00:11:51;102447.47;;;14.44
63297;BMP280;49419;51.716;-4.948;2023-05-13T00:14:17;102461.59;;;14.50
63297;BMP280;49419;51.716;-4.948;2023-05-13T00:16:43;102456.34;;;14.49
63297;BMP280;49419;51.716;-4.948;2023-05-13T00:19:16;102459.56;;;14.45
63297;BMP280;49419;51.716;-4.948;2023-05-13T00:21:42;102462.00;;;14.42
63297;BMP280;49419;51.716;-4.948;2023-05-13T00:24:08;102458.47;;;14.40
63297;BMP280;49419;51.716;-4.948;2023-05-13T00:26:42;102466.16;;;14.39
63297;BMP280;49419;51.716;-4.948;2023-05-13T00:29:07;102453.75;;;14.32
63297;BMP280;49419;51.716;-4.948;2023-05-13T00:31:40;102458.94;;;14.32
63297;BMP280;49419;51.716;-4.948;2023-05-13T00:34:14;102449.97;;;14.25
63297;BMP280;49419;51.716;-4.948;2023-05-13T00:36:43;102456.91;;;14.26
63297;BMP280;49419;51.716;-4.948;2023-05-13T00:39:08;102450.56;;;14.20
63297;BMP280;49419;51.716;-4.948;2023-05-13T00:41:44;102459.28;;;14.22
63297;BMP280;49419;51.716;-4.948;2023-05-13T00:44:21;102460.03;;;14.19
63297;BMP280;49419;51.716;-4.948;2023-05-13T00:47:00;102451.31;;;14.17
63297;BMP280;49419;51.716;-4.948;2023-05-13T00:49:26;102449.38;;;14.14
63297;BMP280;49419;51.716;-4.948;2023-05-13T00:51:52;102451.69;;;14.08
63297;BMP280;49419;51.716;-4.948;2023-05-13T00:54:19;102448.03;;;14.04
63297;BMP280;49419;51.716;-4.948;2023-05-13T00:57:04;102439.09;;;13.98
63297;BMP280;49419;51.716;-4.948;2023-05-13T00:59:30;102438.91;;;13.95
63297;BMP280;49419;51.716;-4.948;2023-05-13T01:03:04;102450.56;;;14.03
63297;BMP280;49419;51.716;-4.948;2023-05-13T01:08:08;102435.53;;;13.96
63297;BMP280;49419;51.716;-4.948;2023-05-13T01:11:03;102442.38;;;13.95
63297;BMP280;49419;51.716;-4.948;2023-05-13T01:16:48;102439.41;;;13.88
63297;BMP280;49419;51.716;-4.948;2023-05-13T01:19:51;102444.56;;;13.88
63297;BMP280;49419;51.716;-4.948;2023-05-13T01:22:17;102425.56;;;13.86
63297;BMP280;49419;51.716;-4.948;2023-05-13T01:24:42;102419.59;;;13.87
63297;BMP280;49419;51.716;-4.948;2023-05-13T01:27:27;102415.06;;;13.83
63297;BMP280;49419;51.716;-4.948;2023-05-13T01:29:53;102411.53;;;13.81
63297;BMP280;49419;51.716;-4.948;2023-05-13T01:32:21;102413.31;;;13.82
63297;BMP280;49419;51.716;-4.948;2023-05-13T01:34:49;102414.09;;;13.81
63297;BMP280;49419;51.716;-4.948;2023-05-13T01:37:22;102406.06;;;13.75
63297;BMP280;49419;51.716;-4.948;2023-05-13T01:42:54;102425.50;;;13.69
63297;BMP280;49419;51.716;-4.948;2023-05-13T01:45:22;102416.66;;;13.64
63297;BMP280;49419;51.716;-4.948;2023-05-13T01:47:50;102414.00;;;13.62
63297;BMP280;49419;51.716;-4.948;2023-05-13T01:50:16;102417.47;;;13.63
63297;BMP280;49419;51.716;-4.948;2023-05-13T01:52:43;102413.03;;;13.60
63297;BMP280;49419;51.716;-4.948;2023-05-13T01:55:09;102419.81;;;13.58
63297;BMP280;49419;51.716;-4.948;2023-05-13T01:57:48;102425.78;;;13.57
63297;BMP280;49419;51.716;-4.948;2023-05-13T02:00:15;102421.38;;;13.55
63297;BMP280;49419;51.716;-4.948;2023-05-13T02:02:43;102418.56;;;13.50
63297;BMP280;49419;51.716;-4.948;2023-05-13T02:05:29;102416.69;;;13.48
63297;BMP280;49419;51.716;-4.948;2023-05-13T02:08:42;102426.94;;;13.47
63297;BMP280;49419;51.716;-4.948;2023-05-13T02:11:07;102432.41;;;13.52
63297;BMP280;49419;51.716;-4.948;2023-05-13T02:13:36;102436.84;;;13.55
63297;BMP280;49419;51.716;-4.948;2023-05-13T02:19:07;102436.66;;;13.52
63297;BMP280;49419;51.716;-4.948;2023-05-13T02:21:53;102438.38;;;13.51
63297;BMP280;49419;51.716;-4.948;2023-05-13T02:24:20;102439.97;;;13.49
63297;BMP280;49419;51.716;-4.948;2023-05-13T02:26:49;102442.56;;;13.49
63297;BMP280;49419;51.716;-4.948;2023-05-13T02:29:20;102435.63;;;13.49
63297;BMP280;49419;51.716;-4.948;2023-05-13T02:31:57;102453.84;;;13.51
63297;BMP280;49419;51.716;-4.948;2023-05-13T02:34:30;102447.06;;;13.53
63297;BMP280;49419;51.716;-4.948;2023-05-13T02:37:04;102442.66;;;13.51
63297;BMP280;49419;51.716;-4.948;2023-05-13T02:39:30;102437.25;;;13.47
63297;BMP280;49419;51.716;-4.948;2023-05-13T02:41:55;102445.81;;;13.46
63297;BMP280;49419;51.716;-4.948;2023-05-13T02:44:37;102441.38;;;13.43
63297;BMP280;49419;51.716;-4.948;2023-05-13T02:47:04;102450.28;;;13.49
63297;BMP280;49419;51.716;-4.948;2023-05-13T02:49:31;102442.41;;;13.47
63297;BMP280;49419;51.716;-4.948;2023-05-13T02:51:56;102443.28;;;13.47
63297;BMP280;49419;51.716;-4.948;2023-05-13T02:54:21;102438.94;;;13.46
63297;BMP280;49419;51.716;-4.948;2023-05-13T02:57:22;102434.56;;;13.45
63297;BMP280;49419;51.716;-4.948;2023-05-13T02:59:51;102443.88;;;13.42
63297;BMP280;49419;51.716;-4.948;2023-05-13T03:02:16;102435.81;;;13.36
63297;BMP280;49419;51.716;-4.948;2023-05-13T03:04:41;102442.75;;;13.37
63297;BMP280;49419;51.716;-4.948;2023-05-13T03:07:33;102425.25;;;13.31
63297;BMP280;49419;51.716;-4.948;2023-05-13T03:10:20;102425.25;;;13.31
63297;BMP280;49419;51.716;-4.948;2023-05-13T03:13:03;102422.59;;;13.30
63297;BMP280;49419;51.716;-4.948;2023-05-13T03:15:30;102413.63;;;13.23
63297;BMP280;49419;51.716;-4.948;2023-05-13T03:17:56;102438.78;;;13.27
63297;BMP280;49419;51.716;-4.948;2023-05-13T03:20:39;102443.78;;;13.24
63297;BMP280;49419;51.716;-4.948;2023-05-13T03:23:06;102443.44;;;13.18
63297;BMP280;49419;51.716;-4.948;2023-05-13T03:25:31;102439.91;;;13.17
63297;BMP280;49419;51.716;-4.948;2023-05-13T03:27:57;102437.16;;;13.14
63297;BMP280;49419;51.716;-4.948;2023-05-13T03:30:23;102439.84;;;13.15
63297;BMP280;49419;51.716;-4.948;2023-05-13T03:33:05;102437.13;;;13.12
63297;BMP280;49419;51.716;-4.948;2023-05-13T03:35:33;102430.88;;;13.09
63297;BMP280;49419;51.716;-4.948;2023-05-13T03:38:14;102443.88;;;13.10
63297;BMP280;49419;51.716;-4.948;2023-05-13T03:40:39;102445.56;;;13.10
63297;BMP280;49419;51.716;-4.948;2023-05-13T03:43:31;102450.00;;;13.12
63297;BMP280;49419;51.716;-4.948;2023-05-13T03:46:19;102433.06;;;13.01
63297;BMP280;49419;51.716;-4.948;2023-05-13T03:49:03;102434.84;;;13.02
63297;BMP280;49419;51.716;-4.948;2023-05-13T03:51:32;102437.72;;;12.92
63297;BMP280;49419;51.716;-4.948;2023-05-13T03:54:16;102448.03;;;12.92
63297;BMP280;49419;51.716;-4.948;2023-05-13T03:57:01;102444.16;;;12.85
63297;BMP280;49419;51.716;-4.948;2023-05-13T03:59:28;102435.28;;;12.80
63297;BMP280;49419;51.716;-4.948;2023-05-13T04:01:55;102444.44;;;12.75
63297;BMP280;49419;51.716;-4.948;2023-05-13T04:04:20;102445.06;;;12.71
63297;BMP280;49419;51.716;-4.948;2023-05-13T04:06:46;102443.13;;;12.67
63297;BMP280;49419;51.716;-4.948;2023-05-13T04:09:13;102441.19;;;12.63
63297;BMP280;49419;51.716;-4.948;2023-05-13T04:11:55;102443.13;;;12.67
63297;BMP280;49419;51.716;-4.948;2023-05-13T04:14:38;102449.94;;;12.66
63297;BMP280;49419;51.716;-4.948;2023-05-13T04:17:05;102457.00;;;12.69
63297;BMP280;49419;51.716;-4.948;2023-05-13T04:19:32;102445.63;;;12.65
63297;BMP280;49419;51.716;-4.948;2023-05-13T04:21:58;102449.88;;;12.65
63297;BMP280;49419;51.716;-4.948;2023-05-13T04:24:27;102447.38;;;12.66
63297;BMP280;49419;51.716;-4.948;2023-05-13T04:27:03;102448.44;;;12.70
63297;BMP280;49419;51.716;-4.948;2023-05-13T04:29:30;102451.84;;;12.69
63297;BMP280;49419;51.716;-4.948;2023-05-13T04:31:56;102457.34;;;12.60
63297;BMP280;49419;51.716;-4.948;2023-05-13T04:34:32;102462.34;;;12.57
63297;BMP280;49419;51.716;-4.948;2023-05-13T04:37:04;102466.44;;;12.54
63297;BMP280;49419;51.716;-4.948;2023-05-13T04:39:30;102454.97;;;12.49
63297;BMP280;49419;51.716;-4.948;2023-05-13T04:42:01;102454.19;;;12.50
63297;BMP280;49419;51.716;-4.948;2023-05-13T04:44:29;102450.81;;;12.51
63297;BMP280;49419;51.716;-4.948;2023-05-13T04:47:05;102453.47;;;12.52
63297;BMP280;49419;51.716;-4.948;2023-05-13T04:49:31;102455.06;;;12.51
63297;BMP280;49419;51.716;-4.948;2023-05-13T04:51:56;102454.00;;;12.47
63297;BMP280;49419;51.716;-4.948;2023-05-13T04:54:25;102454.97;;;12.49
63297;BMP280;49419;51.716;-4.948;2023-05-13T04:56:54;102467.13;;;12.52
63297;BMP280;49419;51.716;-4.948;2023-05-13T04:59:20;102468.56;;;12.47
63297;BMP280;49419;51.716;-4.948;2023-05-13T05:01:50;102474.81;;;12.50
63297;BMP280;49419;51.716;-4.948;2023-05-13T05:04:40;102470.25;;;12.60
63297;BMP280;49419;51.716;-4.948;2023-05-13T05:07:08;102474.53;;;12.76
63297;BMP280;49419;51.716;-4.948;2023-05-13T05:09:38;102475.19;;;12.86
63297;BMP280;49419;51.716;-4.948;2023-05-13T05:12:14;102473.78;;;12.92
63297;BMP280;49419;51.716;-4.948;2023-05-13T05:14:42;102466.47;;;13.00
63297;BMP280;49419;51.716;-4.948;2023-05-13T05:17:09;102478.44;;;13.14
63297;BMP280;49419;51.716;-4.948;2023-05-13T05:19:56;102464.19;;;13.20
63297;BMP280;49419;51.716;-4.948;2023-05-13T05:22:24;102469.00;;;13.30
63297;BMP280;49419;51.716;-4.948;2023-05-13T05:25:03;102471.22;;;13.38
63297;BMP280;49419;51.716;-4.948;2023-05-13T05:27:32;102490.13;;;13.54
63297;BMP280;49419;51.716;-4.948;2023-05-13T05:29:57;102478.44;;;13.61
63297;BMP280;49419;51.716;-4.948;2023-05-13T05:32:27;102483.63;;;13.78
63297;BMP280;49419;51.716;-4.948;2023-05-13T05:34:56;102473.66;;;13.84
63297;BMP280;49419;51.716;-4.948;2023-05-13T05:37:28;102480.22;;;13.95
63297;BMP280;49419;51.716;-4.948;2023-05-13T05:39:55;102478.88;;;14.01
63297;BMP280;49419;51.716;-4.948;2023-05-13T05:42:21;102469.91;;;14.11
63297;BMP280;49419;51.716;-4.948;2023-05-13T05:45:06;102471.28;;;14.21
63297;BMP280;49419;51.716;-4.948;2023-05-13T05:47:32;102455.16;;;14.25
63297;BMP280;49419;51.716;-4.948;2023-05-13T05:49:59;102461.72;;;14.36
63297;BMP280;49419;51.716;-4.948;2023-05-13T05:52:40;102474.06;;;14.42
63297;BMP280;49419;51.716;-4.948;2023-05-13T05:55:29;102473.53;;;14.48
63297;BMP280;49419;51.716;-4.948;2023-05-13T05:57:56;102471.97;;;14.52
63297;BMP280;49419;51.716;-4.948;2023-05-13T06:00:40;102468.06;;;14.60
63297;BMP280;49419;51.716;-4.948;2023-05-13T06:03:35;102460.38;;;14.61
63297;BMP280;49419;51.716;-4.948;2023-05-13T06:06:41;102460.59;;;14.66
63297;BMP280;49419;51.716;-4.948;2023-05-13T06:09:09;102467.25;;;14.61
63297;BMP280;49419;51.716;-4.948;2023-05-13T06:11:35;102460.91;;;14.54
63297;BMP280;49419;51.716;-4.948;2023-05-13T06:14:11;102465.28;;;14.55
63297;BMP280;49419;51.716;-4.948;2023-05-13T06:16:40;102466.50;;;14.63
63297;BMP280;49419;51.716;-4.948;2023-05-13T06:19:05;102472.25;;;14.75
63297;BMP280;49419;51.716;-4.948;2023-05-13T06:21:31;102460.69;;;14.86
63297;BMP280;49419;51.716;-4.948;2023-05-13T06:23:58;102451.84;;;14.98
63297;BMP280;49419;51.716;-4.948;2023-05-13T06:26:35;102457.56;;;15.10
63297;BMP280;49419;51.716;-4.948;2023-05-13T06:29:08;102463.19;;;15.19
63297;BMP280;49419;51.716;-4.948;2023-05-13T06:31:35;102454.66;;;15.21
63297;BMP280;49419;51.716;-4.948;2023-05-13T06:34:07;102444.41;;;15.23
63297;BMP280;49419;51.716;-4.948;2023-05-13T06:36:43;102427.72;;;15.16
63297;BMP280;49419;51.716;-4.948;2023-05-13T06:39:10;102440.84;;;15.21
63297;BMP280;49419;51.716;-4.948;2023-05-13T06:41:50;102449.03;;;15.30
63297;BMP280;49419;51.716;-4.948;2023-05-13T06:44:18;102447.44;;;15.33
63297;BMP280;49419;51.716;-4.948;2023-05-13T06:46:43;102443.03;;;15.31
63297;BMP280;49419;51.716;-4.948;2023-05-13T06:49:10;102446.56;;;15.33
63297;BMP280;49419;51.716;-4.948;2023-05-13T06:51:41;102462.22;;;15.36
63297;BMP280;49419;51.716;-4.948;2023-05-13T06:54:08;102455.56;;;15.41
63297;BMP280;49419;51.716;-4.948;2023-05-13T06:56:34;102454.22;;;15.48
63297;BMP280;49419;51.716;-4.948;2023-05-13T06:58:59;102449.28;;;15.54
63297;BMP280;49419;51.716;-4.948;2023-05-13T07:01:29;102443.69;;;15.64
63297;BMP280;49419;51.716;-4.948;2023-05-13T07:03:57;102436.31;;;15.73
63297;BMP280;49419;51.716;-4.948;2023-05-13T07:06:23;102429.63;;;15.78
63297;BMP280;49419;51.716;-4.948;2023-05-13T07:11:53;102432.84;;;15.93
63297;BMP280;49419;51.716;-4.948;2023-05-13T07:14:18;102445.44;;;16.04
63297;BMP280;49419;51.716;-4.948;2023-05-13T07:17:01;102442.09;;;16.07
63297;BMP280;49419;51.716;-4.948;2023-05-13T07:19:33;102437.72;;;16.06
63297;BMP280;49419;51.716;-4.948;2023-05-13T07:21:58;102435.28;;;16.08
63297;BMP280;49419;51.716;-4.948;2023-05-13T07:24:46;102445.16;;;16.17
63297;BMP280;49419;51.716;-4.948;2023-05-13T07:27:12;102432.06;;;16.14
63297;BMP280;49419;51.716;-4.948;2023-05-13T07:29:58;102433.84;;;16.15
63297;BMP280;49419;51.716;-4.948;2023-05-13T07:32:28;102427.91;;;16.17
63297;BMP280;49419;51.716;-4.948;2023-05-13T07:35:03;102435.06;;;16.23
63297;BMP280;49419;51.716;-4.948;2023-05-13T07:37:56;102432.31;;;16.20
63297;BMP280;49419;51.716;-4.948;2023-05-13T07:40:44;102436.72;;;16.22
63297;BMP280;49419;51.716;-4.948;2023-05-13T07:43:32;102438.91;;;16.32
63297;BMP280;49419;51.716;-4.948;2023-05-13T07:46:02;102439.03;;;16.35
63297;BMP280;49419;51.716;-4.948;2023-05-13T07:51:21;102449.88;;;16.47
63297;BMP280;49419;51.716;-4.948;2023-05-13T07:53:54;102448.22;;;16.49
63297;BMP280;49419;51.716;-4.948;2023-05-13T07:56:31;102453.75;;;16.58
63297;BMP280;49419;51.716;-4.948;2023-05-13T07:59:03;102453.19;;;16.65
63297;BMP280;49419;51.716;-4.948;2023-05-13T08:01:30;102451.66;;;16.70
63297;BMP280;49419;51.716;-4.948;2023-05-13T08:03:55;102448.47;;;16.76
63297;BMP280;49419;51.716;-4.948;2023-05-13T08:06:21;102449.44;;;16.78
63297;BMP280;49419;51.716;-4.948;2023-05-13T08:08:47;102444.25;;;16.78
63297;BMP280;49419;51.716;-4.948;2023-05-13T08:11:27;102448.72;;;16.82
63297;BMP280;49419;51.716;-4.948;2023-05-13T08:13:52;102443.53;;;16.82
63297;BMP280;49419;51.716;-4.948;2023-05-13T08:16:32;102443.66;;;16.85
63297;BMP280;49419;51.716;-4.948;2023-05-13T08:19:00;102453.63;;;16.97
63297;BMP280;49419;51.716;-4.948;2023-05-13T08:21:29;102459.97;;;17.05
63297;BMP280;49419;51.716;-4.948;2023-05-13T08:23:55;102466.44;;;17.14
63297;BMP280;49419;51.716;-4.948;2023-05-13T08:26:21;102457.91;;;17.18
63297;BMP280;49419;51.716;-4.948;2023-05-13T08:28:55;102456.50;;;17.26
63297;BMP280;49419;51.716;-4.948;2023-05-13T08:31:28;102447.94;;;17.28
63297;BMP280;49419;51.716;-4.948;2023-05-13T08:33:58;102444.78;;;17.37
63297;BMP280;49419;51.716;-4.948;2023-05-13T08:36:41;102451.34;;;17.50
63297;BMP280;49419;51.716;-4.948;2023-05-13T08:39:06;102456.72;;;17.55
63297;BMP280;49419;51.716;-4.948;2023-05-13T08:41:33;102446.44;;;17.58
63297;BMP280;49419;51.716;-4.948;2023-05-13T08:43:59;102449.25;;;17.64
63297;BMP280;49419;51.716;-4.948;2023-05-13T08:46:42;102436.28;;;17.64
63297;BMP280;49419;51.716;-4.948;2023-05-13T08:49:15;102436.38;;;17.67
63297;BMP280;49419;51.716;-4.948;2023-05-13T08:52:06;102431.34;;;17.71
63297;BMP280;49419;51.716;-4.948;2023-05-13T08:54:53;102422.09;;;17.79
63297;BMP280;49419;51.716;-4.948;2023-05-13T08:57:29;102425.81;;;17.87
63297;BMP280;49419;51.716;-4.948;2023-05-13T08:59:58;102425.13;;;17.91
63297;BMP280;49419;51.716;-4.948;2023-05-13T09:02:23;102436.53;;;17.96
63297;BMP280;49419;51.716;-4.948;2023-05-13T09:04:56;102425.47;;;18.01
63297;BMP280;49419;51.716;-4.948;2023-05-13T09:07:29;102430.06;;;18.08
63297;BMP280;49419;51.716;-4.948;2023-05-13T09:09:56;102433.78;;;18.16
63297;BMP280;49419;51.716;-4.948;2023-05-13T09:15:11;102444.66;;;18.29
63297;BMP280;49419;51.716;-4.948;2023-05-13T09:17:41;102427.31;;;18.28
63297;BMP280;49419;51.716;-4.948;2023-05-13T09:20:18;102429.16;;;18.32
63297;BMP280;49419;51.716;-4.948;2023-05-13T09:25:36;102417.09;;;18.34
63297;BMP280;49419;51.716;-4.948;2023-05-13T09:28:21;102419.91;;;18.40
63297;BMP280;49419;51.716;-4.948;2023-05-13T09:31:04;102429.53;;;18.44
63297;BMP280;49419;51.716;-4.948;2023-05-13T09:33:31;102419.19;;;18.45
63297;BMP280;49419;51.716;-4.948;2023-05-13T09:35:57;102412.38;;;18.49
63297;BMP280;49419;51.716;-4.948;2023-05-13T09:38:28;102408.25;;;18.55
63297;BMP280;49419;51.716;-4.948;2023-05-13T09:41:05;102408.56;;;18.66
63297;BMP280;49419;51.716;-4.948;2023-05-13T09:43:33;102383.56;;;18.70
63297;BMP280;49419;51.716;-4.948;2023-05-13T09:46:05;102392.50;;;18.78
63297;BMP280;49419;51.716;-4.948;2023-05-13T09:48:43;102389.41;;;18.91
63297;BMP280;49419;51.716;-4.948;2023-05-13T09:51:32;102387.00;;;18.96
63297;BMP280;49419;51.716;-4.948;2023-05-13T09:54:17;102396.88;;;19.07
63297;BMP280;49419;51.716;-4.948;2023-05-13T09:56:42;102385.78;;;19.14
63297;BMP280;49419;51.716;-4.948;2023-05-13T09:59:08;102396.47;;;19.23
63297;BMP280;49419;51.716;-4.948;2023-05-13T10:01:34;102382.63;;;19.24
63297;BMP280;49419;51.716;-4.948;2023-05-13T10:04:00;102380.16;;;19.30
63297;BMP280;49419;51.716;-4.948;2023-05-13T10:06:42;102374.97;;;19.30
63297;BMP280;49419;51.716;-4.948;2023-05-13T10:09:09;102379.56;;;19.38
63297;BMP280;49419;51.716;-4.948;2023-05-13T10:11:35;102377.22;;;19.48
63297;BMP280;49419;51.716;-4.948;2023-05-13T10:14:19;102381.69;;;19.52
63297;BMP280;49419;51.716;-4.948;2023-05-13T10:16:48;102389.78;;;19.63
63297;BMP280;49419;51.716;-4.948;2023-05-13T10:19:35;102385.69;;;19.72
63297;BMP280;49419;51.716;-4.948;2023-05-13T10:22:29;102390.34;;;19.83
63297;BMP280;49419;51.716;-4.948;2023-05-13T10:25:06;102379.16;;;19.86
63297;BMP280;49419;51.716;-4.948;2023-05-13T10:27:33;102370.66;;;19.94
63297;BMP280;49419;51.716;-4.948;2023-05-13T10:30:01;102372.63;;;20.02
63297;BMP280;49419;51.716;-4.948;2023-05-13T10:32:41;102368.31;;;20.04
63297;BMP280;49419;51.716;-4.948;2023-05-13T10:35:14;102377.34;;;20.18
63297;BMP280;49419;51.716;-4.948;2023-05-13T10:38:15;102368.44;;;20.45
63297;BMP280;49419;51.716;-4.948;2023-05-13T10:41:10;102360.78;;;20.89
63297;BMP280;49419;51.716;-4.948;2023-05-13T10:43:59;102352.84;;;21.27
63297;BMP280;49419;51.716;-4.948;2023-05-13T10:46:33;102351.91;;;21.67
63297;BMP280;49419;51.716;-4.948;2023-05-13T10:49:31;102340.88;;;21.85
63297;BMP280;49419;51.716;-4.948;2023-05-13T10:52:06;102349.47;;;21.78
63297;BMP280;49419;51.716;-4.948;2023-05-13T10:58:28;102345.53;;;21.52
63297;BMP280;49419;51.716;-4.948;2023-05-13T11:04:16;102346.47;;;21.57
63297;BMP280;49419;51.716;-4.948;2023-05-13T11:06:48;102344.88;;;21.63
63297;BMP280;49419;51.716;-4.948;2023-05-13T11:11:58;102350.78;;;21.55
63297;BMP280;49419;51.716;-4.948;2023-05-13T11:14:29;102338.59;;;21.54
63297;BMP280;49419;51.716;-4.948;2023-05-13T11:17:28;102331.63;;;21.53
63297;BMP280;49419;51.716;-4.948;2023-05-13T11:19:56;102348.25;;;21.60
63297;BMP280;49419;51.716;-4.948;2023-05-13T11:22:28;102352.66;;;21.62
63297;BMP280;49419;51.716;-4.948;2023-05-13T11:25:08;102348.25;;;21.60
63297;BMP280;49419;51.716;-4.948;2023-05-13T11:30:52;102355.22;;;21.59
63297;BMP280;49419;51.716;-4.948;2023-05-13T11:33:17;102364.91;;;21.63
63297;BMP280;49419;51.716;-4.948;2023-05-13T11:35:56;102358.16;;;21.77
63297;BMP280;49419;51.716;-4.948;2023-05-13T11:38:31;102363.53;;;21.86
63297;BMP280;49419;51.716;-4.948;2023-05-13T11:41:07;102354.75;;;21.81
63297;BMP280;49419;51.716;-4.948;2023-05-13T11:43:35;102362.31;;;21.66
63297;BMP280;49419;51.716;-4.948;2023-05-13T11:46:21;102357.66;;;21.50
63297;BMP280;49419;51.716;-4.948;2023-05-13T11:48:46;102357.63;;;21.47
63297;BMP280;49419;51.716;-4.948;2023-05-13T11:51:17;102357.75;;;21.53
63297;BMP280;49419;51.716;-4.948;2023-05-13T11:53:57;102347.41;;;21.59
63297;BMP280;49419;51.716;-4.948;2023-05-13T11:56:29;102350.00;;;21.59
63297;BMP280;49419;51.716;-4.948;2023-05-13T11:59:25;102357.66;;;21.50
63297;BMP280;49419;51.716;-4.948;2023-05-13T12:01:59;102357.63;;;21.47
63297;BMP280;49419;51.716;-4.948;2023-05-13T12:04:36;102355.06;;;21.49
63297;BMP280;49419;51.716;-4.948;2023-05-13T12:07:11;102360.09;;;21.40
63297;BMP280;49419;51.716;-4.948;2023-05-13T12:09:37;102358.00;;;21.23
63297;BMP280;49419;51.716;-4.948;2023-05-13T12:12:24;102357.13;;;21.24
63297;BMP280;49419;51.716;-4.948;2023-05-13T12:14:51;102346.34;;;21.06
63297;BMP280;49419;51.716;-4.948;2023-05-13T12:17:22;102355.91;;;21.05
63297;BMP280;49419;51.716;-4.948;2023-05-13T12:20:12;102357.75;;;21.12
63297;BMP280;49419;51.716;-4.948;2023-05-13T12:25:40;102350.34;;;21.31
63297;BMP280;49419;51.716;-4.948;2023-05-13T12:31:05;102348.47;;;21.25
63297;BMP280;49419;51.716;-4.948;2023-05-13T12:33:32;102341.34;;;21.18
63297;BMP280;49419;51.716;-4.948;2023-05-13T12:36:19;102339.56;;;21.17
63297;BMP280;49419;51.716;-4.948;2023-05-13T12:39:10;102348.38;;;21.20
63297;BMP280;49419;51.716;-4.948;2023-05-13T12:41:37;102348.31;;;21.19
63297;BMP280;49419;51.716;-4.948;2023-05-13T12:44:13;102339.47;;;21.11
63297;BMP280;49419;51.716;-4.948;2023-05-13T12:47:08;102339.47;;;21.12
63297;BMP280;49419;51.716;-4.948;2023-05-13T12:49:56;102335.13;;;21.11
63297;BMP280;49419;51.716;-4.948;2023-05-13T12:52:25;102345.53;;;21.10
63297;BMP280;49419;51.716;-4.948;2023-05-13T12:55:11;102346.34;;;21.07
63297;BMP280;49419;51.716;-4.948;2023-05-13T12:58:00;102337.69;;;21.08
63297;BMP280;49419;51.716;-4.948;2023-05-13T13:00:24;102357.75;;;21.11
63297;BMP280;49419;51.716;-4.948;2023-05-13T13:02:55;102362.66;;;20.97
63297;BMP280;49419;51.716;-4.948;2023-05-13T13:05:23;102347.72;;;20.89
63297;BMP280;49419;51.716;-4.948;2023-05-13T13:07:55;102341.63;;;20.90
63297;BMP280;49419;51.716;-4.948;2023-05-13T13:10:34;102349.63;;;20.96
63297;BMP280;49419;51.716;-4.948;2023-05-13T13:13:04;102349.72;;;21.02
63297;BMP280;49419;51.716;-4.948;2023-05-13T13:15:31;102340.38;;;21.13
63297;BMP280;49419;51.716;-4.948;2023-05-13T13:18:21;102328.31;;;21.19
63297;BMP280;49419;51.716;-4.948;2023-05-13T13:20:48;102341.50;;;21.27
63297;BMP280;49419;51.716;-4.948;2023-05-13T13:23:21;102332.69;;;21.22
63297;BMP280;49419;51.716;-4.948;2023-05-13T13:25:47;102338.97;;;21.31
63297;BMP280;49419;51.716;-4.948;2023-05-13T13:29:08;102330.50;;;21.41
63297;BMP280;49419;51.716;-4.948;2023-05-13T13:31:33;102308.78;;;21.43
63297;BMP280;49419;51.716;-4.948;2023-05-13T13:33:59;102323.13;;;21.66
63297;BMP280;49419;51.716;-4.948;2023-05-13T13:37:08;102316.34;;;21.77
63297;BMP280;49419;51.716;-4.948;2023-05-13T13:39:35;102309.91;;;22.08
63297;BMP280;49419;51.716;-4.948;2023-05-13T13:42:01;102295.59;;;22.40
63297;BMP280;49419;51.716;-4.948;2023-05-13T13:44:46;102302.06;;;22.65
63297;BMP280;49419;51.716;-4.948;2023-05-13T13:47:37;102301.50;;;22.87
63297;BMP280;49419;51.716;-4.948;2023-05-13T13:50:16;102305.13;;;22.99
63297;BMP280;49419;51.716;-4.948;2023-05-13T13:52:47;102308.78;;;23.15
63297;BMP280;49419;51.716;-4.948;2023-05-13T13:55:13;102287.25;;;23.42
63297;BMP280;49419;51.716;-4.948;2023-05-13T13:57:41;102271.28;;;24.19
63297;BMP280;49419;51.716;-4.948;2023-05-13T14:00:17;102271.75;;;25.40
63297;BMP280;49419;51.716;-4.948;2023-05-13T14:02:43;102261.97;;;26.70
63297;BMP280;49419;51.716;-4.948;2023-05-13T14:05:09;102262.63;;;28.19
63297;BMP280;49419;51.716;-4.948;2023-05-13T14:07:35;102255.03;;;29.31
63297;BMP280;49419;51.716;-4.948;2023-05-13T14:10:02;102257.28;;;30.05
63297;BMP280;49419;51.716;-4.948;2023-05-13T14:12:47;102251.50;;;30.32
63297;BMP280;49419;51.716;-4.948;2023-05-13T14:15:13;102264.28;;;30.09
63297;BMP280;49419;51.716;-4.948;2023-05-13T14:17:56;102265.38;;;29.98
63297;BMP280;49419;51.716;-4.948;2023-05-13T14:20:24;102264.03;;;30.22
63297;BMP280;49419;51.716;-4.948;2023-05-13T14:22:55;102268.06;;;30.42
63297;BMP280;49419;51.716;-4.948;2023-05-13T14:25:20;102258.03;;;30.56
63297;BMP280;49419;51.716;-4.948;2023-05-13T14:27:49;102257.22;;;30.54
63297;BMP280;49419;51.716;-4.948;2023-05-13T14:30:17;102260.69;;;30.56
63297;BMP280;49419;51.716;-4.948;2023-05-13T14:32:43;102256.22;;;31.39
63297;BMP280;49419;51.716;-4.948;2023-05-13T14:35:10;102246.50;;;32.39
63297;BMP280;49419;51.716;-4.948;2023-05-13T14:37:35;102235.63;;;33.59
63297;BMP280;49419;51.716;-4.948;2023-05-13T14:40:02;102227.44;;;34.61
63297;BMP280;49419;51.716;-4.948;2023-05-13T14:42:29;102221.31;;;35.47
63297;BMP280;49419;51.716;-4.948;2023-05-13T14:44:55;102229.50;;;36.23
63297;BMP280;49419;51.716;-4.948;2023-05-13T14:47:22;102216.69;;;36.87
63297;BMP280;49419;51.716;-4.948;2023-05-13T14:49:58;102211.47;;;37.72
63297;BMP280;49419;51.716;-4.948;2023-05-13T14:52:24;102214.25;;;38.04
63297;BMP280;49419;51.716;-4.948;2023-05-13T14:54:49;102210.06;;;38.47
63297;BMP280;49419;51.716;-4.948;2023-05-13T14:57:14;102206.34;;;38.34
63297;BMP280;49419;51.716;-4.948;2023-05-13T14:59:43;102201.66;;;37.89
63297;BMP280;49419;51.716;-4.948;2023-05-13T15:02:17;102197.69;;;37.28